sensor_id;sensor_type;location;lat;lon;timestamp;pressure;altitude;pressure_sealevel;temperature;humidity
74079;BME280;62437;51.544;-3.276;2022-08-19T00:00:03;100651.86;;;19.92;50.93
74079;BME280;62437;51.544;-3.276;2022-08-19T00:02:27;100656.56;;;20.18;52.22
74079;BME280;62437;51.544;-3.276;2022-08-19T00:04:53;100646.52;;;20.30;49.47
74079;BME280;62437;51.544;-3.276;2022-08-19T00:07:19;100649.46;;;20.12;50.16
74079;BME280;62437;51.544;-3.276;2022-08-19T00:09:46;100648.51;;;19.65;50.49
74079;BME280;62437;51.544;-3.276;2022-08-19T00:12:10;100644.61;;;20.19;49.34
74079;BME280;62437;51.544;-3.276;2022-08-19T00:14:36;100645.41;;;20.02;49.98
74079;BME280;62437;51.544;-3.276;2022-08-19T00:17:02;100649.00;;;20.57;49.18
74079;BME280;62437;51.544;-3.276;2022-08-19T00:19:27;100648.33;;;20.15;49.80
74079;BME280;62437;51.544;-3.276;2022-08-19T00:21:53;100650.23;;;20.29;48.66
74079;BME280;62437;51.544;-3.276;2022-08-19T00:24:18;100648.64;;;20.63;49.21
74079;BME280;62437;51.544;-3.276;2022-08-19T00:26:44;100648.29;;;20.29;48.61
74079;BME280;62437;51.544;-3.276;2022-08-19T00:29:11;100645.49;;;20.25;49.53
74079;BME280;62437;51.544;-3.276;2022-08-19T00:31:35;100647.66;;;20.13;51.34
74079;BME280;62437;51.544;-3.276;2022-08-19T00:34:02;100653.71;;;20.16;49.02
74079;BME280;62437;51.544;-3.276;2022-08-19T00:36:26;100657.88;;;19.78;48.87
74079;BME280;62437;51.544;-3.276;2022-08-19T00:38:51;100662.19;;;19.53;49.29
74079;BME280;62437;51.544;-3.276;2022-08-19T00:41:19;100664.58;;;19.38;49.29
74079;BME280;62437;51.544;-3.276;2022-08-19T00:43:42;100659.63;;;19.81;48.29
74079;BME280;62437;51.544;-3.276;2022-08-19T00:46:08;100662.84;;;19.99;47.92
74079;BME280;62437;51.544;-3.276;2022-08-19T00:48:34;100659.66;;;19.99;48.09
74079;BME280;62437;51.544;-3.276;2022-08-19T00:51:00;100659.91;;;19.97;48.80
74079;BME280;62437;51.544;-3.276;2022-08-19T00:53:27;100666.87;;;19.78;47.87
74079;BME280;62437;51.544;-3.276;2022-08-19T00:55:51;100671.10;;;19.88;47.85
74079;BME280;62437;51.544;-3.276;2022-08-19T00:58:17;100669.24;;;19.77;48.86
74079;BME280;62437;51.544;-3.276;2022-08-19T01:00:41;100666.36;;;19.72;48.21
74079;BME280;62437;51.544;-3.276;2022-08-19T01:03:09;100657.39;;;19.86;47.99
74079;BME280;62437;51.544;-3.276;2022-08-19T01:05:32;100662.82;;;19.89;48.15
74079;BME280;62437;51.544;-3.276;2022-08-19T01:07:59;100666.64;;;19.90;47.88
74079;BME280;62437;51.544;-3.276;2022-08-19T01:10:26;100670.11;;;19.45;47.95
74079;BME280;62437;51.544;-3.276;2022-08-19T01:12:49;100666.53;;;19.36;47.86
74079;BME280;62437;51.544;-3.276;2022-08-19T01:15:16;100664.00;;;19.70;49.22
74079;BME280;62437;51.544;-3.276;2022-08-19T01:17:39;100669.41;;;19.47;47.58
74079;BME280;62437;51.544;-3.276;2022-08-19T01:20:07;100671.66;;;19.25;48.70
74079;BME280;62437;51.544;-3.276;2022-08-19T01:22:32;100673.20;;;19.25;48.11
74079;BME280;62437;51.544;-3.276;2022-08-19T01:24:56;100675.75;;;19.34;48.95
74079;BME280;62437;51.544;-3.276;2022-08-19T01:27:21;100674.30;;;19.55;47.87
74079;BME280;62437;51.544;-3.276;2022-08-19T01:29:47;100673.28;;;19.32;48.49
74079;BME280;62437;51.544;-3.276;2022-08-19T01:32:14;100670.02;;;19.23;47.96
74079;BME280;62437;51.544;-3.276;2022-08-19T01:34:38;100675.96;;;19.02;48.32
74079;BME280;62437;51.544;-3.276;2022-08-19T01:37:07;100678.50;;;19.03;48.20
74079;BME280;62437;51.544;-3.276;2022-08-19T01:39:29;100673.28;;;18.69;48.65
74079;BME280;62437;51.544;-3.276;2022-08-19T01:41:55;100668.68;;;19.33;48.75
74079;BME280;62437;51.544;-3.276;2022-08-19T01:44:21;100680.07;;;18.87;48.28
74079;BME280;62437;51.544;-3.276;2022-08-19T01:46:48;100685.61;;;18.90;48.39
74079;BME280;62437;51.544;-3.276;2022-08-19T01:49:12;100676.00;;;18.87;48.73
74079;BME280;62437;51.544;-3.276;2022-08-19T01:51:38;100673.09;;;18.92;48.98
74079;BME280;62437;51.544;-3.276;2022-08-19T01:54:03;100681.25;;;18.61;49.08
74079;BME280;62437;51.544;-3.276;2022-08-19T01:56:29;100685.37;;;18.90;49.21
74079;BME280;62437;51.544;-3.276;2022-08-19T01:58:57;100685.00;;;19.04;49.10
74079;BME280;62437;51.544;-3.276;2022-08-19T02:01:20;100685.84;;;18.54;48.61
74079;BME280;62437;51.544;-3.276;2022-08-19T02:03:46;100686.16;;;18.83;49.14
74079;BME280;62437;51.544;-3.276;2022-08-19T02:06:12;100682.41;;;18.96;48.68
74079;BME280;62437;51.544;-3.276;2022-08-19T02:08:38;100681.98;;;18.95;48.15
74079;BME280;62437;51.544;-3.276;2022-08-19T02:11:04;100683.19;;;18.66;48.06
74079;BME280;62437;51.544;-3.276;2022-08-19T02:13:28;100684.89;;;18.33;48.50
74079;BME280;62437;51.544;-3.276;2022-08-19T02:15:53;100683.11;;;19.00;48.26
74079;BME280;62437;51.544;-3.276;2022-08-19T02:18:19;100683.94;;;18.40;48.22
74079;BME280;62437;51.544;-3.276;2022-08-19T02:20:44;100683.64;;;18.35;48.39
74079;BME280;62437;51.544;-3.276;2022-08-19T02:23:11;100685.21;;;18.02;48.49
74079;BME280;62437;51.544;-3.276;2022-08-19T02:25:36;100685.67;;;18.39;48.03
74079;BME280;62437;51.544;-3.276;2022-08-19T02:28:01;100689.44;;;18.09;48.94
74079;BME280;62437;51.544;-3.276;2022-08-19T02:30:27;100689.88;;;18.25;48.73
74079;BME280;62437;51.544;-3.276;2022-08-19T02:32:53;100688.73;;;17.98;48.71
74079;BME280;62437;51.544;-3.276;2022-08-19T02:35:19;100690.33;;;17.91;49.31
74079;BME280;62437;51.544;-3.276;2022-08-19T02:37:44;100692.54;;;17.71;49.50
74079;BME280;62437;51.544;-3.276;2022-08-19T02:40:10;100692.67;;;17.68;49.84
74079;BME280;62437;51.544;-3.276;2022-08-19T02:42:35;100692.01;;;17.48;49.72
74079;BME280;62437;51.544;-3.276;2022-08-19T02:45:01;100685.11;;;18.01;48.84
74079;BME280;62437;51.544;-3.276;2022-08-19T02:47:27;100691.54;;;18.20;48.35
74079;BME280;62437;51.544;-3.276;2022-08-19T02:49:52;100698.63;;;18.26;48.12
74079;BME280;62437;51.544;-3.276;2022-08-19T02:52:18;100696.41;;;17.83;48.47
74079;BME280;62437;51.544;-3.276;2022-08-19T02:54:43;100699.81;;;17.86;48.81
74079;BME280;62437;51.544;-3.276;2022-08-19T02:57:09;100701.39;;;17.66;48.55
74079;BME280;62437;51.544;-3.276;2022-08-19T02:59:34;100699.66;;;17.79;49.31
74079;BME280;62437;51.544;-3.276;2022-08-19T03:02:00;100698.03;;;18.17;48.42
74079;BME280;62437;51.544;-3.276;2022-08-19T03:04:26;100694.98;;;17.94;48.99
74079;BME280;62437;51.544;-3.276;2022-08-19T03:06:52;100698.40;;;17.78;49.33
74079;BME280;62437;51.544;-3.276;2022-08-19T03:09:18;100694.01;;;17.76;49.86
74079;BME280;62437;51.544;-3.276;2022-08-19T03:11:43;100696.68;;;17.66;50.55
74079;BME280;62437;51.544;-3.276;2022-08-19T03:14:09;100702.63;;;17.66;49.21
74079;BME280;62437;51.544;-3.276;2022-08-19T03:16:41;100701.98;;;17.54;49.47
74079;BME280;62437;51.544;-3.276;2022-08-19T03:19:00;100702.50;;;17.77;49.44
74079;BME280;62437;51.544;-3.276;2022-08-19T03:21:27;100709.19;;;17.54;49.38
74079;BME280;62437;51.544;-3.276;2022-08-19T03:23:55;100713.68;;;17.47;49.36
74079;BME280;62437;51.544;-3.276;2022-08-19T03:26:17;100719.03;;;17.22;49.46
74079;BME280;62437;51.544;-3.276;2022-08-19T03:28:42;100717.77;;;17.38;49.73
74079;BME280;62437;51.544;-3.276;2022-08-19T03:31:11;100716.08;;;17.38;49.72
74079;BME280;62437;51.544;-3.276;2022-08-19T03:33:34;100720.28;;;17.45;48.88
74079;BME280;62437;51.544;-3.276;2022-08-19T03:36:02;100725.11;;;17.32;49.54
74079;BME280;62437;51.544;-3.276;2022-08-19T03:38:25;100729.70;;;17.11;49.33
74079;BME280;62437;51.544;-3.276;2022-08-19T03:40:50;100736.12;;;17.05;49.44
74079;BME280;62437;51.544;-3.276;2022-08-19T03:43:16;100742.15;;;17.15;49.60
74079;BME280;62437;51.544;-3.276;2022-08-19T03:45:41;100746.01;;;16.80;50.18
74079;BME280;62437;51.544;-3.276;2022-08-19T03:48:07;100747.71;;;17.10;49.07
74079;BME280;62437;51.544;-3.276;2022-08-19T03:50:32;100752.91;;;16.72;49.79
74079;BME280;62437;51.544;-3.276;2022-08-19T03:52:58;100753.27;;;17.03;49.66
74079;BME280;62437;51.544;-3.276;2022-08-19T03:55:24;100757.54;;;16.78;49.95
74079;BME280;62437;51.544;-3.276;2022-08-19T03:57:49;100760.75;;;17.07;49.47
74079;BME280;62437;51.544;-3.276;2022-08-19T04:00:15;100760.44;;;16.60;49.30
74079;BME280;62437;51.544;-3.276;2022-08-19T04:02:40;100759.74;;;16.67;50.02
74079;BME280;62437;51.544;-3.276;2022-08-19T04:05:06;100762.51;;;16.60;49.77
74079;BME280;62437;51.544;-3.276;2022-08-19T04:07:31;100762.12;;;16.51;49.16
74079;BME280;62437;51.544;-3.276;2022-08-19T04:09:57;100761.58;;;16.41;48.79
74079;BME280;62437;51.544;-3.276;2022-08-19T04:12:22;100767.00;;;16.58;49.00
74079;BME280;62437;51.544;-3.276;2022-08-19T04:14:48;100771.22;;;16.13;49.35
74079;BME280;62437;51.544;-3.276;2022-08-19T04:17:13;100770.31;;;16.53;48.78
74079;BME280;62437;51.544;-3.276;2022-08-19T04:19:39;100777.66;;;16.17;48.78
74079;BME280;62437;51.544;-3.276;2022-08-19T04:22:05;100782.31;;;16.34;49.34
74079;BME280;62437;51.544;-3.276;2022-08-19T04:24:31;100786.85;;;16.33;48.78
74079;BME280;62437;51.544;-3.276;2022-08-19T04:26:56;100790.60;;;16.41;48.73
74079;BME280;62437;51.544;-3.276;2022-08-19T04:29:23;100790.66;;;15.71;50.18
74079;BME280;62437;51.544;-3.276;2022-08-19T04:31:48;100793.95;;;16.25;48.96
74079;BME280;62437;51.544;-3.276;2022-08-19T04:34:16;100791.97;;;16.11;48.87
74079;BME280;62437;51.544;-3.276;2022-08-19T04:36:40;100794.15;;;15.95;48.63
74079;BME280;62437;51.544;-3.276;2022-08-19T04:39:06;100797.32;;;16.29;48.51
74079;BME280;62437;51.544;-3.276;2022-08-19T04:41:30;100800.68;;;16.14;48.59
74079;BME280;62437;51.544;-3.276;2022-08-19T04:43:55;100804.41;;;15.69;48.79
74079;BME280;62437;51.544;-3.276;2022-08-19T04:46:21;100803.87;;;15.80;48.90
74079;BME280;62437;51.544;-3.276;2022-08-19T04:48:47;100806.46;;;15.60;49.82
74079;BME280;62437;51.544;-3.276;2022-08-19T04:51:12;100815.67;;;15.75;48.68
74079;BME280;62437;51.544;-3.276;2022-08-19T04:53:40;100820.93;;;15.79;48.95
74079;BME280;62437;51.544;-3.276;2022-08-19T04:56:06;100824.49;;;15.66;48.69
74079;BME280;62437;51.544;-3.276;2022-08-19T04:58:29;100829.33;;;15.55;49.12
74079;BME280;62437;51.544;-3.276;2022-08-19T05:00:55;100832.52;;;15.44;48.77
74079;BME280;62437;51.544;-3.276;2022-08-19T05:03:21;100834.11;;;15.74;48.74
74079;BME280;62437;51.544;-3.276;2022-08-19T05:05:47;100829.85;;;15.69;49.15
74079;BME280;62437;51.544;-3.276;2022-08-19T05:08:12;100826.52;;;15.49;48.50
74079;BME280;62437;51.544;-3.276;2022-08-19T05:10:38;100824.53;;;15.41;48.88
74079;BME280;62437;51.544;-3.276;2022-08-19T05:13:03;100824.99;;;15.49;48.60
74079;BME280;62437;51.544;-3.276;2022-08-19T05:15:28;100828.32;;;15.44;48.93
74079;BME280;62437;51.544;-3.276;2022-08-19T05:17:54;100830.45;;;15.66;48.90
74079;BME280;62437;51.544;-3.276;2022-08-19T05:20:20;100834.60;;;15.69;48.26
74079;BME280;62437;51.544;-3.276;2022-08-19T05:22:46;100834.76;;;15.41;49.07
74079;BME280;62437;51.544;-3.276;2022-08-19T05:25:13;100841.92;;;15.58;49.04
74079;BME280;62437;51.544;-3.276;2022-08-19T05:27:37;100853.08;;;15.91;48.36
74079;BME280;62437;51.544;-3.276;2022-08-19T05:30:04;100858.62;;;15.73;48.73
74079;BME280;62437;51.544;-3.276;2022-08-19T05:32:28;100864.71;;;15.30;49.25
74079;BME280;62437;51.544;-3.276;2022-08-19T05:34:54;100867.37;;;15.28;49.10
74079;BME280;62437;51.544;-3.276;2022-08-19T05:37:20;100867.99;;;15.66;48.39
74079;BME280;62437;51.544;-3.276;2022-08-19T05:39:45;100876.68;;;15.70;48.55
74079;BME280;62437;51.544;-3.276;2022-08-19T05:42:11;100881.84;;;14.90;49.35
74079;BME280;62437;51.544;-3.276;2022-08-19T05:44:39;100889.65;;;15.52;48.83
74079;BME280;62437;51.544;-3.276;2022-08-19T05:47:05;100891.16;;;15.42;49.34
74079;BME280;62437;51.544;-3.276;2022-08-19T05:49:29;100890.24;;;15.66;49.26
74079;BME280;62437;51.544;-3.276;2022-08-19T05:51:54;100889.87;;;15.57;49.16
74079;BME280;62437;51.544;-3.276;2022-08-19T05:54:19;100892.35;;;15.28;49.56
74079;BME280;62437;51.544;-3.276;2022-08-19T05:56:45;100891.14;;;15.73;49.70
74079;BME280;62437;51.544;-3.276;2022-08-19T05:59:11;100891.14;;;15.39;49.38
74079;BME280;62437;51.544;-3.276;2022-08-19T06:01:38;100894.64;;;15.47;50.39
74079;BME280;62437;51.544;-3.276;2022-08-19T06:04:03;100893.99;;;15.26;50.69
74079;BME280;62437;51.544;-3.276;2022-08-19T06:06:27;100892.73;;;15.55;51.20
74079;BME280;62437;51.544;-3.276;2022-08-19T06:08:53;100889.55;;;16.10;50.84
74079;BME280;62437;51.544;-3.276;2022-08-19T06:11:22;100889.06;;;16.06;50.49
74079;BME280;62437;51.544;-3.276;2022-08-19T06:13:45;100886.85;;;15.97;49.88
74079;BME280;62437;51.544;-3.276;2022-08-19T06:16:10;100887.44;;;15.90;49.85
74079;BME280;62437;51.544;-3.276;2022-08-19T06:18:35;100889.47;;;16.25;49.51
74079;BME280;62437;51.544;-3.276;2022-08-19T06:21:01;100892.79;;;16.55;49.09
74079;BME280;62437;51.544;-3.276;2022-08-19T06:23:27;100895.43;;;16.38;49.72
74079;BME280;62437;51.544;-3.276;2022-08-19T06:25:52;100900.56;;;17.10;48.93
74079;BME280;62437;51.544;-3.276;2022-08-19T06:28:18;100903.43;;;17.16;48.70
74079;BME280;62437;51.544;-3.276;2022-08-19T06:30:43;100908.04;;;17.13;49.22
74079;BME280;62437;51.544;-3.276;2022-08-19T06:33:09;100913.63;;;17.29;48.57
74079;BME280;62437;51.544;-3.276;2022-08-19T06:35:38;100912.61;;;17.04;49.06
74079;BME280;62437;51.544;-3.276;2022-08-19T06:38:00;100915.09;;;17.36;48.67
74079;BME280;62437;51.544;-3.276;2022-08-19T06:40:26;100916.76;;;17.08;48.69
74079;BME280;62437;51.544;-3.276;2022-08-19T06:42:52;100917.01;;;17.26;48.94
74079;BME280;62437;51.544;-3.276;2022-08-19T06:45:18;100919.83;;;17.22;49.19
74079;BME280;62437;51.544;-3.276;2022-08-19T06:47:43;100916.73;;;17.21;49.25
74079;BME280;62437;51.544;-3.276;2022-08-19T06:50:09;100913.67;;;17.05;49.09
74079;BME280;62437;51.544;-3.276;2022-08-19T06:52:35;100909.80;;;17.38;48.82
74079;BME280;62437;51.544;-3.276;2022-08-19T06:55:01;100906.49;;;17.52;48.58
74079;BME280;62437;51.544;-3.276;2022-08-19T06:57:26;100909.45;;;17.40;49.25
74079;BME280;62437;51.544;-3.276;2022-08-19T06:59:52;100910.20;;;17.18;48.97
74079;BME280;62437;51.544;-3.276;2022-08-19T07:02:18;100908.38;;;17.39;48.97
74079;BME280;62437;51.544;-3.276;2022-08-19T07:04:43;100913.97;;;17.80;48.92
74079;BME280;62437;51.544;-3.276;2022-08-19T07:07:11;100915.53;;;17.33;49.05
74079;BME280;62437;51.544;-3.276;2022-08-19T07:09:35;100921.48;;;17.17;49.85
74079;BME280;62437;51.544;-3.276;2022-08-19T07:12:00;100927.17;;;17.02;50.13
74079;BME280;62437;51.544;-3.276;2022-08-19T07:14:27;100929.11;;;17.30;50.13
74079;BME280;62437;51.544;-3.276;2022-08-19T07:16:54;100926.72;;;16.93;50.43
74079;BME280;62437;51.544;-3.276;2022-08-19T07:19:18;100929.35;;;17.65;50.01
74079;BME280;62437;51.544;-3.276;2022-08-19T07:21:43;100930.69;;;17.37;49.64
74079;BME280;62437;51.544;-3.276;2022-08-19T07:24:08;100932.52;;;17.44;49.82
74079;BME280;62437;51.544;-3.276;2022-08-19T07:26:40;100935.54;;;17.42;50.11
74079;BME280;62437;51.544;-3.276;2022-08-19T07:29:00;100937.89;;;17.66;50.16
74079;BME280;62437;51.544;-3.276;2022-08-19T07:31:27;100944.23;;;17.60;50.47
74079;BME280;62437;51.544;-3.276;2022-08-19T07:33:53;100940.37;;;17.40;50.11
74079;BME280;62437;51.544;-3.276;2022-08-19T07:36:20;100941.08;;;17.76;49.96
74079;BME280;62437;51.544;-3.276;2022-08-19T07:38:45;100938.53;;;17.79;49.81
74079;BME280;62437;51.544;-3.276;2022-08-19T07:41:11;100938.18;;;18.00;50.50
74079;BME280;62437;51.544;-3.276;2022-08-19T07:43:33;100940.72;;;17.82;50.11
74079;BME280;62437;51.544;-3.276;2022-08-19T07:46:00;100932.54;;;18.11;50.54
74079;BME280;62437;51.544;-3.276;2022-08-19T07:48:26;100928.11;;;17.88;50.11
74079;BME280;62437;51.544;-3.276;2022-08-19T07:50:51;100932.21;;;18.31;50.96
74079;BME280;62437;51.544;-3.276;2022-08-19T07:53:16;100937.40;;;17.81;50.81
74079;BME280;62437;51.544;-3.276;2022-08-19T07:55:42;100938.84;;;18.24;50.74
74079;BME280;62437;51.544;-3.276;2022-08-19T07:58:07;100942.59;;;18.13;50.07
74079;BME280;62437;51.544;-3.276;2022-08-19T08:00:32;100942.85;;;18.32;49.87
74079;BME280;62437;51.544;-3.276;2022-08-19T08:02:57;100949.14;;;18.60;49.85
74079;BME280;62437;51.544;-3.276;2022-08-19T08:05:24;100954.36;;;18.37;49.79
74079;BME280;62437;51.544;-3.276;2022-08-19T08:07:49;100955.61;;;18.51;49.76
74079;BME280;62437;51.544;-3.276;2022-08-19T08:10:15;100959.74;;;18.42;49.45
74079;BME280;62437;51.544;-3.276;2022-08-19T08:12:40;100963.65;;;18.63;49.72
74079;BME280;62437;51.544;-3.276;2022-08-19T08:15:09;100960.93;;;18.76;49.65
74079;BME280;62437;51.544;-3.276;2022-08-19T08:17:32;100965.98;;;18.70;49.94
74079;BME280;62437;51.544;-3.276;2022-08-19T08:19:57;100965.34;;;18.34;49.86
74079;BME280;62437;51.544;-3.276;2022-08-19T08:22:24;100964.15;;;18.72;50.00
74079;BME280;62437;51.544;-3.276;2022-08-19T08:24:48;100964.88;;;19.00;49.67
74079;BME280;62437;51.544;-3.276;2022-08-19T08:27:14;100970.34;;;18.73;49.71
74079;BME280;62437;51.544;-3.276;2022-08-19T08:29:39;100961.43;;;18.98;49.41
74079;BME280;62437;51.544;-3.276;2022-08-19T08:32:05;100960.49;;;19.14;49.18
74079;BME280;62437;51.544;-3.276;2022-08-19T08:34:31;100961.43;;;19.18;49.21
74079;BME280;62437;51.544;-3.276;2022-08-19T08:36:57;100959.81;;;19.15;49.50
74079;BME280;62437;51.544;-3.276;2022-08-19T08:39:22;100961.77;;;19.35;49.23
74079;BME280;62437;51.544;-3.276;2022-08-19T08:41:55;100964.35;;;19.23;49.27
74079;BME280;62437;51.544;-3.276;2022-08-19T08:44:16;100966.39;;;19.64;49.27
74079;BME280;62437;51.544;-3.276;2022-08-19T08:46:41;100967.81;;;19.44;49.50
74079;BME280;62437;51.544;-3.276;2022-08-19T08:49:16;100969.61;;;19.49;49.01
74079;BME280;62437;51.544;-3.276;2022-08-19T08:51:35;100976.54;;;19.66;49.35
74079;BME280;62437;51.544;-3.276;2022-08-19T08:53:56;100974.14;;;19.44;48.74
74079;BME280;62437;51.544;-3.276;2022-08-19T08:56:20;100978.70;;;19.61;48.35
74079;BME280;62437;51.544;-3.276;2022-08-19T08:58:54;100978.48;;;19.56;48.75
74079;BME280;62437;51.544;-3.276;2022-08-19T09:01:12;100980.94;;;19.64;49.11
74079;BME280;62437;51.544;-3.276;2022-08-19T09:03:39;100976.54;;;19.95;48.32
74079;BME280;62437;51.544;-3.276;2022-08-19T09:06:07;100975.95;;;20.17;49.18
74079;BME280;62437;51.544;-3.276;2022-08-19T09:08:39;100976.94;;;20.29;48.98
74079;BME280;62437;51.544;-3.276;2022-08-19T09:10:55;100979.54;;;19.73;49.04
74079;BME280;62437;51.544;-3.276;2022-08-19T09:13:27;100980.39;;;20.22;49.14
74079;BME280;62437;51.544;-3.276;2022-08-19T09:15:51;100980.13;;;20.12;48.73
74079;BME280;62437;51.544;-3.276;2022-08-19T09:18:11;100983.23;;;19.80;48.65
74079;BME280;62437;51.544;-3.276;2022-08-19T09:20:36;100983.11;;;20.08;48.53
74079;BME280;62437;51.544;-3.276;2022-08-19T09:23:02;100977.72;;;20.10;48.51
74079;BME280;62437;51.544;-3.276;2022-08-19T09:25:27;100975.83;;;20.35;48.18
74079;BME280;62437;51.544;-3.276;2022-08-19T09:27:53;100983.74;;;20.96;46.98
74079;BME280;62437;51.544;-3.276;2022-08-19T09:30:23;100979.15;;;20.60;46.59
74079;BME280;62437;51.544;-3.276;2022-08-19T09:32:44;100983.03;;;20.58;46.99
74079;BME280;62437;51.544;-3.276;2022-08-19T09:35:10;100984.95;;;20.87;46.48
74079;BME280;62437;51.544;-3.276;2022-08-19T09:37:35;100989.00;;;21.05;46.42
74079;BME280;62437;51.544;-3.276;2022-08-19T09:40:01;100990.05;;;21.28;45.91
74079;BME280;62437;51.544;-3.276;2022-08-19T09:42:25;100995.17;;;21.35;46.28
74079;BME280;62437;51.544;-3.276;2022-08-19T09:44:51;100997.06;;;21.02;46.13
74079;BME280;62437;51.544;-3.276;2022-08-19T09:47:16;100996.08;;;21.12;45.99
74079;BME280;62437;51.544;-3.276;2022-08-19T09:49:41;100994.14;;;21.13;46.56
74079;BME280;62437;51.544;-3.276;2022-08-19T09:52:09;100994.10;;;21.47;45.81
74079;BME280;62437;51.544;-3.276;2022-08-19T09:54:32;100992.99;;;21.67;44.87
74079;BME280;62437;51.544;-3.276;2022-08-19T09:56:58;100984.28;;;21.48;45.37
74079;BME280;62437;51.544;-3.276;2022-08-19T09:59:23;100976.18;;;21.79;45.72
74079;BME280;62437;51.544;-3.276;2022-08-19T10:01:50;100974.88;;;21.52;45.99
74079;BME280;62437;51.544;-3.276;2022-08-19T10:04:14;100978.39;;;21.41;46.07
74079;BME280;62437;51.544;-3.276;2022-08-19T10:06:40;100980.45;;;21.54;46.13
74079;BME280;62437;51.544;-3.276;2022-08-19T10:09:06;100980.16;;;21.49;45.45
74079;BME280;62437;51.544;-3.276;2022-08-19T10:11:30;100981.81;;;21.25;45.43
74079;BME280;62437;51.544;-3.276;2022-08-19T10:13:56;100986.72;;;21.52;44.79
74079;BME280;62437;51.544;-3.276;2022-08-19T10:16:23;100984.04;;;21.45;43.51
74079;BME280;62437;51.544;-3.276;2022-08-19T10:18:47;100982.29;;;21.20;43.86
74079;BME280;62437;51.544;-3.276;2022-08-19T10:21:14;100992.23;;;20.88;43.81
74079;BME280;62437;51.544;-3.276;2022-08-19T10:23:40;100984.85;;;20.91;42.87
74079;BME280;62437;51.544;-3.276;2022-08-19T10:26:05;100981.92;;;21.06;43.32
74079;BME280;62437;51.544;-3.276;2022-08-19T10:28:29;100984.33;;;21.56;42.05
74079;BME280;62437;51.544;-3.276;2022-08-19T10:30:55;100984.79;;;21.63;41.82
74079;BME280;62437;51.544;-3.276;2022-08-19T10:33:20;100981.99;;;21.67;42.27
74079;BME280;62437;51.544;-3.276;2022-08-19T10:35:47;100984.49;;;21.46;42.46
74079;BME280;62437;51.544;-3.276;2022-08-19T10:38:11;100986.41;;;21.59;41.71
74079;BME280;62437;51.544;-3.276;2022-08-19T10:40:37;100986.83;;;21.25;43.16
74079;BME280;62437;51.544;-3.276;2022-08-19T10:43:03;100983.62;;;21.57;42.60
74079;BME280;62437;51.544;-3.276;2022-08-19T10:45:28;100975.86;;;21.63;41.37
74079;BME280;62437;51.544;-3.276;2022-08-19T10:47:54;100977.08;;;21.90;42.56
74079;BME280;62437;51.544;-3.276;2022-08-19T10:50:19;100977.79;;;21.65;43.93
74079;BME280;62437;51.544;-3.276;2022-08-19T10:52:47;100987.23;;;21.89;44.01
74079;BME280;62437;51.544;-3.276;2022-08-19T10:55:10;100986.33;;;21.30;42.09
74079;BME280;62437;51.544;-3.276;2022-08-19T10:57:35;100982.01;;;21.60;43.70
74079;BME280;62437;51.544;-3.276;2022-08-19T11:00:02;100978.55;;;21.80;42.40
74079;BME280;62437;51.544;-3.276;2022-08-19T11:02:26;100985.58;;;22.03;43.48
74079;BME280;62437;51.544;-3.276;2022-08-19T11:04:52;100989.90;;;21.60;42.31
74079;BME280;62437;51.544;-3.276;2022-08-19T11:07:17;100999.30;;;21.86;41.18
74079;BME280;62437;51.544;-3.276;2022-08-19T11:09:43;101002.57;;;21.52;41.97
74079;BME280;62437;51.544;-3.276;2022-08-19T11:12:09;101004.81;;;21.63;42.08
74079;BME280;62437;51.544;-3.276;2022-08-19T11:14:35;101001.78;;;21.59;41.16
74079;BME280;62437;51.544;-3.276;2022-08-19T11:17:00;101001.83;;;22.35;40.29
74079;BME280;62437;51.544;-3.276;2022-08-19T11:19:25;100996.90;;;22.14;41.42
74079;BME280;62437;51.544;-3.276;2022-08-19T11:21:52;100995.70;;;22.27;40.90
74079;BME280;62437;51.544;-3.276;2022-08-19T11:24:19;101001.91;;;21.74;42.18
74079;BME280;62437;51.544;-3.276;2022-08-19T11:26:43;100997.83;;;22.38;40.56
74079;BME280;62437;51.544;-3.276;2022-08-19T11:29:09;100998.43;;;22.23;39.12
74079;BME280;62437;51.544;-3.276;2022-08-19T11:31:34;100996.76;;;22.35;40.41
74079;BME280;62437;51.544;-3.276;2022-08-19T11:34:00;100991.53;;;21.52;42.62
74079;BME280;62437;51.544;-3.276;2022-08-19T11:36:24;100995.10;;;21.05;41.96
74079;BME280;62437;51.544;-3.276;2022-08-19T11:38:50;101003.87;;;21.54;42.42
74079;BME280;62437;51.544;-3.276;2022-08-19T11:41:17;101005.74;;;21.76;41.07
74079;BME280;62437;51.544;-3.276;2022-08-19T11:43:41;101004.02;;;21.70;40.74
74079;BME280;62437;51.544;-3.276;2022-08-19T11:46:14;101000.79;;;21.70;41.52
74079;BME280;62437;51.544;-3.276;2022-08-19T11:48:33;101002.83;;;22.25;39.92
74079;BME280;62437;51.544;-3.276;2022-08-19T11:50:58;101006.00;;;22.20;39.98
74079;BME280;62437;51.544;-3.276;2022-08-19T11:53:24;101002.83;;;22.09;39.50
74079;BME280;62437;51.544;-3.276;2022-08-19T11:55:50;100997.69;;;22.42;39.13
74079;BME280;62437;51.544;-3.276;2022-08-19T11:58:16;101011.60;;;22.47;38.61
74079;BME280;62437;51.544;-3.276;2022-08-19T12:00:41;101003.45;;;22.04;39.55
74079;BME280;62437;51.544;-3.276;2022-08-19T12:03:06;101010.64;;;21.80;39.85
74079;BME280;62437;51.544;-3.276;2022-08-19T12:05:31;101008.97;;;22.50;38.81
74079;BME280;62437;51.544;-3.276;2022-08-19T12:07:57;101015.49;;;22.06;38.65
74079;BME280;62437;51.544;-3.276;2022-08-19T12:10:23;101010.07;;;22.19;39.05
74079;BME280;62437;51.544;-3.276;2022-08-19T12:12:48;101010.76;;;22.58;39.36
74079;BME280;62437;51.544;-3.276;2022-08-19T12:15:14;101014.50;;;22.40;38.81
74079;BME280;62437;51.544;-3.276;2022-08-19T12:17:40;101012.63;;;22.73;37.84
74079;BME280;62437;51.544;-3.276;2022-08-19T12:20:06;100998.79;;;22.92;37.78
74079;BME280;62437;51.544;-3.276;2022-08-19T12:22:30;101003.13;;;22.91;37.89
74079;BME280;62437;51.544;-3.276;2022-08-19T12:24:56;101004.59;;;22.95;38.06
74079;BME280;62437;51.544;-3.276;2022-08-19T12:27:21;101007.63;;;22.72;39.95
74079;BME280;62437;51.544;-3.276;2022-08-19T12:29:47;101003.45;;;22.33;40.83